Aviation Digital Data Service (ADDS)

Output produced by METARs form (1047 UTC 19 January 2019)
found at http://www.aviationweather.gov/metar/data/
 
SBAT 191000Z 24002KT 8000 FEW015 SCT090 23/23 Q1013
TAF SBAT 190400Z 1906/1918 14005KT 9999 FEW010 TN24/1911Z TX32/1917Z 
     BECMG 1913/1915 23008KT SCT020 
     BECMG 1916/1918 SCT030 FEW035TCU RMK PAZ
       
SBAN 191000Z 17007KT CAVOK 19/17 Q1020
TAF SBAN 190400Z 1906/1918 18005KT 7000 NSC TN20/1908Z TX27/1917Z 
     BECMG 1909/1911 17008KT 9999 FEW030 
     BECMG 1913/1915 12011KT SCT033 FEW037TCU 
     PROB40 1915/1918 09005KT TS VCSH BKN035 FEW040CB RMK PEW
       
SBAR 191000Z 04002KT 9999 SCT018 FEW021TCU 26/21 Q1014
TAF SBAR 191000Z 1912/1924 12010KT 9999 SCT020 TX30/1915Z TN27/1923Z RMK PEA
       
SBAU 190800Z 00000KT CAVOK 25/19 Q1014
SBBQ 191000Z 05002KT 3000 BR BKN004 20/19 Q1022
SBBW 191000Z 29003KT CAVOK 24/22 Q1014
TAF SBBW 190400Z 1906/1918 03005KT 7000 NSC TN23/1908Z TX35/1917Z 
     BECMG 1913/1915 11005KT 9999 FEW020 
     BECMG 1916/1918 09010KT TS VCSH BKN020 FEW027CB RMK PEW
       
SBBU 191000Z 22002KT CAVOK 25/24 Q1016
TAF SBBU 190030Z 1906/1918 16005KT CAVOK TN21/1908Z TX34/1917Z 
     BECMG 1916/1918 8000 SHRA SCT035 FEW040TCU RMK PEB
       
SBBE 191000Z 14002KT 9999 FEW010 BKN100 25/24 Q1012
TAF SBBE 191000Z 1912/2012 06005KT 9999 SCT015 TX28/1917Z TN24/2007Z 
     BECMG 1914/1916 03010KT BKN020 
     BECMG 1916/1918 06010KT BKN030 FEW035TCU BE CMG 1921/1923 36008KT SCT020
RMK PAZ
       
SBBH 191000Z 09005KT CAVOK 23/17 Q1018
SBCF 191000Z 16003KT CAVOK 21/17 Q1019
TAF SBCF 191000Z 1912/2012 04005KT 9999 FEW033 TX29/1918Z TN21/2008Z 
     BECMG 1914/1916 35004KT BKN045 
     BECMG 1916/1918 SCT040 FEW045TCU 
     FM192200 07008KT 9999 FEW043 
     BECMG 1922/1924 08005KT 7000 NSC 
     FM200400 03005KT 7000 NSC RMK PEW
       
SBLS 191000Z 15006KT CAVOK 22/17 Q1019
SBBV 191000Z 08006KT 9999 FEW010 SCT070 25/20 Q1012
TAF SBBV 191000Z 1912/2012 09006KT CAVOK TX33/1917Z TN25/2007Z 
     BECMG 1913/1915 08013KT 9999 SCT025 
     BECMG 1917/1919 06012KT BKN040 FEW045TCU 
     BECMG 1 923/2001 09008KT CAVOK RMK PAZ
       
TAF SBLP 190200Z 1906/1918 22007KT 9999 FEW030 TN27/1910Z TX37/1917Z RMK PEA
       
SBBR 191000Z 02003KT 330V040 CAVOK 21/18 Q1019
TAF SBBR 191000Z 1912/2012 12005KT 9999 FEW030 TX29/1918Z TN20/2008Z 
     BECMG 1913/1915 VCSH 10008KT SCT030 
     BECMG 1916/1917 BKN030 FEW035TCU 
     BECMG 1918/1920 TS VCSH SCT040 FEW045CB 
     FM192100 07005KT NSW SCT040 FEW045TCU 
     BECMG 2001/2003 01005KT 7000 NSC 
     BECMG 2010/2012 08005KT FEW030 RMK PEW
       
SBCB 191000Z 06011KT 9999 FEW008 25/22 Q1012
TAF SBCB 190840Z 1912/2012 09010KT 9999 SCT020 TX34/1916Z TN24/2008Z 
     BECMG 1912/1914 06013KT 
     BECMG 1914/1916 10015KT 
     BECMG 1919/1921 12013KT BE CMG 2003/2004 07010KT 
     BECMG 2008/2010 04012KT RMK PGW
       
SBKG 191000Z 12008KT 9999 SCT010 BKN018 23/21 Q1016
TAF SBKG 190200Z 1906/1918 12008KT 9000 SCT015 TN22/1907Z TX32/1917Z 
     PROB30 1906/1909 BKN010 RMK PEA
       
SBKP 191000Z 02004KT 9000 4000SE NSC 23/20 Q1016
TAF SBKP 190911Z 1912/2012 35009KT 9999 SCT043 TX33/1918Z TN22/2008Z 
     PROB40 1920/1924 17010KT 4000 TSRA BKN030 FEW045CB 
     BECMG 2002/2004 15005KT BKN020 
     BECMG 2008/2010 14005KT CAVOK RMK PHM
       
SBCG 191000Z 01003KT 9999 FEW045 BKN100 23/21 Q1015
TAF SBCG 190845Z 1912/2012 24006KT 9999 SCT040 FEW050TCU TX28/1915Z T N23/2008Z 
     TEMPO 1914/1922 18008KT 7000 TSRA SCT010 BKN035 FEW040CB RMK PEB
       
SBCP 191000Z 01004KT CAVOK 26/22 Q1013
TAF SBCP 190200Z 1906/1918 01005KT CAVOK TN25/1909Z TX35/1916Z 
     BECMG 1914/1916 07015KT FEW025 RMK PHD
       
SBCA 190800Z 31016KT 9999 FEW030 SCT080 21/18 Q1015
SBCH 190900Z 32002KT 8000 BCFG FEW002 BKN012 OVC100 21/21 Q12014
SBCR 191000Z 25007G17KT 5000 BR BKN009 BKN070 21/19 Q1015
TAF SBCR 190845Z 1912/2012 24006KT 9999 FEW035 TX33/1915Z TN23/2008Z 
     TEMPO 1918/1920 18008KT 7000 TSRA SCT010 BKN035 FEW040CB RMK PEB
       
SBCZ 190545Z 00000KT CAVOK 24/24 Q1013
TAF SBCZ 191000Z 1912/2012 25003KT 9999 SCT010 TX31/1918Z TN22/2008Z 
     BECMG 1913/1915 00000KT BKN015 
     BECMG 1917/1919 36007KT BKN030 
     BECMG 1921/1 923 00000KT FEW030 RMK PAZ
       
SBCY 191000Z 15002KT CAVOK 23/22 Q1014
TAF SBCY 191000Z 1912/2012 06005KT CAVOK TX331918Z TN23/2008Z 
     BECMG 1914/1916 34010KT 9999 SCT020 
     BECMG 1917/1919 30010KT FEW025TCU 
     BECMG 1923/2001 36007KT CAVOK RMK PAZ
       
SBCT 191000Z 33005KT CAVOK 21/19 Q1017
TAF SBCT 190845Z 1912/2012 32006KT 9999 SCT025 TX29/1917Z TN18/2008Z 
     BECMG 1913/1915 SCT030 FEW040TCU 
     PROB40 
     TEMPO 1916/2002 8000 TSRA BKN025 F EW040CB 
     BECMG 2002/2004 8000 BKN008 RMK PEB
       
SBBI 191000Z 30002KT CAVOK 21/19 Q1017
TAF SBBI 190030Z 1906/1918 34005KT 9999 SCT025 TN23/1908Z TX29/1917Z 
     PROB40 1906/1910 22004KT 6000 SCT005 
     BECMG 1910/1912 BKN025 FEW030TCU 
     BECMG 1916/1918 8000 TSRA BKN025 FEW035CB RMK PEB
       
SBFN 191000Z 07003KT 9999 SCT017 27/24 Q1014
TAF SBFN 191000Z 1912/1924 13009KT 8000 SCT017 TX31/1915Z TN26/1923Z 
     PROB40 
     TEMPO 1913/1915 4000 RA BKN012 FEW025TCU RMK PEA
       
SBFL 191000Z 36010KT 9999 FEW040 BKN100 27/23 Q1009
TAF SBFL 190845Z 1912/2012 35008KT 9999 BKN025 FEW030TCU TX27/1916Z T N23/2008Z 
     TEMPO 1915/2002 20010KT 7000 TSRA SCT010 BKN025 FEW040CB 
     BECMG 2002/ 2004 BKN015 RMK PEB
       
SBFZ 191000Z 10008KT 2500 RA BKN004 BKN013 OVC100 24/23 Q1013
TAF SBFZ 191000Z 1912/2012 08008KT 8000 BKN020 TX30/1915Z TN25/2007Z 
     TEMPO 1912/1914 4000 SHRA BKN007 FEW025TCU 
     BECMG 1915/1917 SCT025 RMK PEA
       
SBFI 191000Z 26004KT 9999 OVC008 22/21 Q1014
TAF SBFI 190845Z 1912/2012 22006KT 9999 BKN025 TX27/1917Z TN22/2008Z 
     PROB30 
     TEMPO 1918/1922 VCSH BKN020 FEW040TCU RMK PEB
       
SBGO 191000Z 07002KT CAVOK 21/18 Q1017
TAF SBGO 191000Z 1912/2012 14010KT 9999 FEW037 TX31/1918Z TX21/2008Z 
     BECMG 1915/1917 13010KT SCT040 FEW045TCU 
     PROB30 1919/1923 TS SCT040 FEW045CB 
     BECMG 2000/2002 29005KT CAVOK 
     BECMG 2010/2012 15005KT FEW025 RMK PEW
       
SBGW 191000Z 00000KT 9999 FEW020 BKN080 23/21 Q1015
TAF SBGW 190030Z 1906/1918 35006KT CAVOK TN26/1908Z TX33/1917Z 
     BECMG 1909/1911 33004KT 
     BECMG 1914/1917 28005KT 9999 SCT035 RMK PEB
       
SBST 191000Z 06003KT CAVOK 25/24 Q1010
SBIL 191000Z 27003KT 9999 SCT025 FEW030TCU 26/23 Q1016
TAF SBIL 190200Z 1906/1918 26004KT 9000 SCT020 TN24/1908Z TX30/1915Z 
     BECMG 1911/1912 10007KT RMK PEA
       
SBIZ 191000Z 00000KT CAVOK 25/24 Q1013
TAF SBIZ 190400Z 1906/1918 00000KT CAVOK TN25/1907Z TX34/1918Z 
     BECMG 1911/1913 09005KT 9999 FEW020 
     BECMG 1916/1918 SCT020 RMK PAZ
       
SBIP 191000Z 03006KT CAVOK 24/20 Q1017
TAF SBIH 190400Z 1906/1918 05005KT 9999 FEW010 TN25/1911Z TX32/1918Z 
     BECMG 1912/1914 09005KT SCT020 RMK PAZ